Latest Weather Observations for Taree Airport

IDN60801

Issued at 10:52 pm EST Sunday 21 July 2019 (issued every 10 minutes, with the page automatically refreshed every 10 minutes)

About weather observations | Map of weather stations | Latest weather observations for NSW | Other Formats
Station Details ID: 060141 Name: TAREE AIRPORT AWS Lat: -31.89 Lon: 152.51 Height: 8.0 m
Data from the previous 72 hours. | See also: Recent months at Taree Airport
Date/Time
EST
Temp
°C
App
Temp
°C
Dew
Point
°C
Rel
Hum
%
Delta-T
°C
Wind Press
QNH
hPa
Press
MSL
hPa
Rain since
9am
mm
Dir  Spd
km/h
Gust
km/h
Spd
kts
Gust
kts
21/10:30pm 7.4 4.7 5.7 89 0.8 SSW 9 13 5 7 1017.1 1017.1 0.0
21/10:00pm 8.9 6.8 6.5 85 1.1 WNW 7 9 4 5 1017.2 1017.2 0.0
21/09:30pm 8.6 7.8 6.7 88 0.9 CALM 0 0 0 0 1017.4 1017.4 0.0
21/09:00pm 8.3 7.3 5.6 83 1.2 CALM 0 0 0 0 1017.2 1017.2 0.0
21/08:30pm 9.9 8.3 7.8 87 1.0 NE 6 7 3 4 1017.3 1017.3 0.0
21/08:00pm 10.4 9.3 6.9 79 1.6 SSW 2 9 1 5 1017.1 1017.1 0.0
21/07:30pm 12.3 11.8 8.0 75 2.1 CALM 0 6 0 3 1016.9 1016.9 0.0
21/07:00pm 13.4 12.4 8.7 73 2.4 SW 4 9 2 5 1016.7 1016.7 0.0
21/06:30pm 13.3 12.7 7.5 68 2.8 CALM 0 2 0 1 1016.5 1016.5 0.0
21/06:00pm 14.8 12.2 7.8 63 3.5 ENE 11 13 6 7 1016.1 1016.1 0.0
21/05:30pm 16.0 14.4 6.4 53 4.7 SSE 4 7 2 4 1015.8 1015.8 0.0
21/05:00pm 18.1 16.0 6.6 47 5.7 SE 7 9 4 5 1015.6 1015.6 0.0
21/04:30pm 19.5 16.6 6.3 42 6.6 ESE 11 17 6 9 1015.3 1015.3 0.0
21/04:00pm 20.7 17.1 5.1 36 7.7 ESE 13 15 7 8 1015.3 1015.3 0.0
21/03:30pm 21.7 17.4 5.2 34 8.2 SE 17 20 9 11 1015.1 1015.1 0.0
21/03:00pm 21.9 18.2 6.2 36 7.9 SE 15 19 8 10 1015.0 1015.0 0.0
21/02:30pm 23.6 20.3 2.4 25 10.1 SW 9 15 5 8 1015.0 1015.0 0.0
21/02:00pm 23.6 18.6 1.3 23 10.4 W 17 26 9 14 1015.2 1015.2 0.0
21/01:30pm 23.4 18.5 2.3 25 10.0 WSW 17 26 9 14 1015.5 1015.5 0.0
21/01:00pm 22.9 17.4 1.9 25 9.8 W 20 33 11 18 1016.0 1016.0 0.0
21/12:30pm 22.7 16.3 1.1 24 10.0 WNW 24 37 13 20 1016.4 1016.4 0.0
21/12:00pm 22.4 17.0 1.4 25 9.7 WNW 19 28 10 15 1017.1 1017.1 0.0
21/11:30am 21.6 18.8 5.1 34 8.2 WSW 9 24 5 13 1017.6 1017.6 0.0
21/11:00am 19.9 17.6 4.8 37 7.3 SE 6 7 3 4 1018.2 1018.2 0.0
21/10:30am 17.3 15.3 7.1 51 5.1 E 7 11 4 6 1018.7 1018.7 0.0
21/10:00am 15.2 13.4 7.3 59 3.9 ENE 6 9 3 5 1018.9 1018.9 0.0
21/09:30am 13.0 11.8 7.9 71 2.5 ENE 4 9 2 5 1019.2 1019.2 0.0
21/09:00am 10.2 8.9 6.0 75 1.9 NW 2 7 1 4 1019.3 1019.3 0.0
21/08:30am 7.9 7.0 6.0 88 0.9 CALM 0 0 0 0 1019.5 1019.5 0.0
21/08:00am 5.3 4.2 5.2 99 0.0 CALM 0 0 0 0 1019.4 1019.4 0.0
21/07:30am 3.4 1.9 3.1 98 0.1 CALM 0 0 0 0 1019.4 1019.4 0.0
21/07:00am 3.8 1.3 3.7 99 0.0 W 6 7 3 4 1019.3 1019.3 0.0
21/06:30am 4.1 1.6 4.0 99 0.0 W 6 11 3 6 1019.0 1019.0 0.0
21/06:00am 3.4 0.6 3.3 99 0.0 W 7 9 4 5 1019.0 1019.0 0.0
21/05:48am 2.6 1.0 2.5 99 0.0 CALM 0 0 0 0 1018.7 1018.7 0.0
21/05:30am 2.4 0.8 2.3 99 0.0 CALM 0 0 0 0 1018.8 1018.8 0.0
21/05:24am 2.1 0.4 1.8 98 0.1 CALM 0 0 0 0 1018.9 1018.9 0.0
21/05:00am 3.5 2.1 3.4 99 0.0 CALM 0 0 0 0 1018.9 1018.9 0.0
21/04:30am 3.8 2.4 3.7 99 0.0 CALM 0 0 0 0 1018.9 1018.9 0.0
21/04:21am 3.7 1.5 3.6 99 0.0 N 4 7 2 4 1018.9 1018.9 0.0
21/04:06am 2.5 -0.3 2.2 98 0.1 NW 6 7 3 4 1019.0 1019.0 0.0
21/04:00am 3.8 1.3 3.7 99 0.0 W 6 7 3 4 1019.2 1019.2 0.0
21/03:30am 4.9 3.7 4.8 99 0.0 CALM 0 0 0 0 1019.3 1019.3 0.0
21/03:00am 4.7 2.1 4.3 97 0.2 NNW 7 7 4 4 1019.4 1019.4 0.0
21/02:31am 6.1 3.9 6.0 99 0.0 WSW 7 9 4 5 1019.5 1019.5 0.0
21/02:30am 6.0 3.9 5.9 99 0.0 W 6 9 3 5 1019.5 1019.5 0.0
21/02:07am 5.3 4.2 5.2 99 0.0 CALM 0 0 0 0 1019.7 1019.7 0.0
21/02:00am 5.9 4.9 5.8 99 0.0 CALM 0 0 0 0 1019.9 1019.9 0.0
21/01:30am 5.4 4.3 5.0 97 0.2 CALM 0 0 0 0 1019.9 1019.9 0.0
21/01:00am 6.7 4.7 6.4 98 0.1 W 6 7 3 4 1020.1 1020.1 0.0
21/12:30am 7.0 5.5 6.7 98 0.1 WSW 4 7 2 4 1020.2 1020.2 0.0
21/12:00am 7.6 6.2 7.3 98 0.1 WSW 4 9 2 5 1020.3 1020.3 0.0
 
Date/Time
EST
Temp
°C
App
Temp
°C
Dew
Point
°C
Rel
Hum
%
Delta-T
°C
Wind Press
QNH
hPa
Press
MSL
hPa
Rain since
9am
mm
Dir  Spd
km/h
Gust
km/h
Spd
kts
Gust
kts
20/11:30pm 8.2 7.7 7.8 97 0.2 CALM 0 0 0 0 1020.5 1020.5 0.0
20/11:00pm 8.4 6.6 7.8 96 0.3 SW 7 9 4 5 1020.7 1020.7 0.0
20/10:30pm 8.2 6.7 6.7 90 0.7 SW 4 9 2 5 1020.8 1020.8 0.0
20/10:00pm 10.7 8.7 8.8 88 0.9 W 9 11 5 6 1021.0 1021.0 0.0
20/09:30pm 12.7 11.6 10.6 87 1.1 NNE 7 9 4 5 1021.1 1021.1 0.0
20/09:00pm 11.3 10.2 8.5 83 1.4 NE 4 7 2 4 1021.3 1021.3 0.0
20/08:30pm 12.9 11.2 9.7 81 1.6 NNE 9 13 5 7 1021.3 1021.3 0.0
20/08:00pm 12.6 10.5 9.6 82 1.5 NE 11 11 6 6 1021.4 1021.4 0.0
20/07:30pm 12.6 10.4 9.2 80 1.7 NE 11 15 6 8 1021.3 1021.3 0.0
20/07:00pm 12.2 9.8 8.7 79 1.7 NE 11 15 6 8 1021.1 1021.1 0.0
20/06:30pm 14.0 11.9 9.8 76 2.2 NNE 11 17 6 9 1020.9 1020.9 0.0
20/06:00pm 12.4 9.6 8.7 78 1.8 NE 13 15 7 8 1020.8 1020.8 0.0
20/05:30pm 13.3 10.2 9.0 75 2.2 NE 15 19 8 10 1020.7 1020.7 0.0
20/05:00pm 15.3 11.9 9.0 66 3.2 ENE 17 22 9 12 1020.5 1020.5 0.0
20/04:30pm 17.2 12.8 8.9 58 4.3 ENE 22 28 12 15 1020.2 1020.2 0.0
20/04:00pm 18.0 13.1 8.6 54 4.8 ENE 24 30 13 16 1020.2 1020.2 0.0
20/03:30pm 18.7 13.7 8.1 50 5.4 ENE 24 32 13 17 1020.2 1020.2 0.0
20/03:00pm 19.5 14.4 7.6 46 6.1 ENE 24 32 13 17 1020.3 1020.3 0.0
20/02:30pm 19.5 16.5 7.6 46 6.1 NE 13 22 7 12 1020.5 1020.5 0.0
20/02:00pm 20.2 16.6 3.0 32 8.0 N 11 17 6 9 1020.6 1020.6 0.0
20/01:30pm 19.9 15.0 2.3 31 8.1 NE 17 22 9 12 1020.9 1020.9 0.0
20/01:00pm 19.6 15.5 2.5 32 7.9 NE 13 20 7 11 1021.3 1021.3 0.0
20/12:30pm 19.7 16.0 2.6 32 7.9 NE 11 20 6 11 1021.7 1021.7 0.0
20/12:00pm 18.9 15.9 3.9 37 7.1 NNE 9 13 5 7 1022.4 1022.4 0.0
20/11:30am 18.0 15.7 4.6 41 6.4 WNW 6 9 3 5 1023.1 1023.1 0.0
20/11:00am 16.1 13.6 4.8 47 5.3 SSW 7 11 4 6 1023.7 1023.7 0.0
20/10:30am 14.5 11.8 3.9 49 4.8 SW 7 9 4 5 1024.3 1024.3 0.0
20/10:00am 13.1 9.9 2.9 50 4.5 WSW 9 13 5 7 1024.8 1024.8 0.0
20/09:30am 11.7 8.1 2.7 54 3.9 W 11 15 6 8 1024.9 1024.9 0.0
20/09:00am 9.8 5.2 1.5 56 3.4 WSW 15 19 8 10 1024.8 1024.8 0.0
20/08:30am 8.4 4.1 1.1 60 3.0 W 13 19 7 10 1024.6 1024.6 0.0
20/08:00am 7.0 3.4 0.9 65 2.4 W 9 13 5 7 1024.5 1024.5 0.0
20/07:30am 5.7 2.1 0.3 68 2.1 W 9 13 5 7 1024.4 1024.4 0.0
20/07:00am 4.7 1.1 0.5 74 1.6 WSW 9 13 5 7 1024.2 1024.2 0.0
20/06:30am 4.6 1.3 0.0 72 1.7 W 7 9 4 5 1024.2 1024.2 0.0
20/06:00am 4.8 1.2 0.6 74 1.6 W 9 13 5 7 1023.9 1023.9 0.0
20/05:30am 5.2 1.6 0.6 72 1.8 W 9 11 5 6 1023.4 1023.4 0.0
20/05:00am 5.3 2.3 0.7 72 1.8 W 6 9 3 5 1023.1 1023.1 0.0
20/04:30am 5.7 2.5 0.7 70 1.9 W 7 11 4 6 1023.1 1023.1 0.0
20/04:00am 5.8 2.2 0.8 70 1.9 W 9 11 5 6 1023.2 1023.2 0.0
20/03:30am 5.7 2.1 0.7 70 1.9 W 9 11 5 6 1023.1 1023.1 0.0
20/03:00am 5.8 2.6 1.0 71 1.9 W 7 13 4 7 1023.2 1023.2 0.0
20/02:30am 5.8 1.5 1.3 73 1.8 WSW 13 15 7 8 1023.5 1023.5 0.0
20/02:00am 5.3 1.8 1.2 75 1.6 WSW 9 11 5 6 1023.6 1023.6 0.0
20/01:30am 4.8 2.8 0.2 72 1.8 CALM 0 0 0 0 1023.6 1023.6 0.0
20/01:00am 6.1 2.6 1.2 71 1.9 W 9 11 5 6 1023.7 1023.7 0.0
20/12:30am 5.6 2.1 1.3 74 1.7 WSW 9 13 5 7 1023.7 1023.7 0.0
20/12:00am 6.1 3.0 1.4 72 1.9 WSW 7 9 4 5 1023.7 1023.7 0.0
 
Date/Time
EST
Temp
°C
App
Temp
°C
Dew
Point
°C
Rel
Hum
%
Delta-T
°C
Wind Press
QNH
hPa
Press
MSL
hPa
Rain since
9am
mm
Dir  Spd
km/h
Gust
km/h
Spd
kts
Gust
kts
19/11:30pm 6.1 3.9 1.1 70 2.0 WSW 2 7 1 4 1023.7 1023.7 0.0
19/11:00pm 6.6 4.4 1.1 68 2.2 WSW 2 6 1 3 1023.7 1023.7 0.0
19/10:30pm 7.2 4.7 1.5 67 2.3 W 4 7 2 4 1023.7 1023.7 0.0
19/10:00pm 7.0 4.2 2.1 71 2.0 WSW 6 9 3 5 1023.6 1023.6 0.0
19/09:30pm 6.9 4.4 1.8 70 2.1 WNW 4 9 2 5 1023.3 1023.3 0.0
19/09:00pm 6.8 3.9 1.3 68 2.2 WNW 6 9 3 5 1023.1 1023.1 0.0
19/08:30pm 7.1 3.7 1.6 68 2.2 NW 9 11 5 6 1022.9 1022.9 0.0
19/08:00pm 9.8 8.0 1.5 56 3.4 CALM 0 0 0 0 1022.7 1022.7 0.0
19/07:30pm 9.7 7.1 1.1 55 3.5 S 4 7 2 4 1022.4 1022.4 0.0
19/07:00pm 11.9 8.4 1.3 48 4.5 SSW 9 11 5 6 1021.9 1021.9 0.0
19/06:30pm 12.0 8.5 1.3 48 4.5 S 9 9 5 5 1021.6 1021.6 0.0
19/06:00pm 12.8 9.3 1.2 45 4.9 S 9 11 5 6 1021.2 1021.2 0.0
19/05:30pm 13.4 9.4 0.4 41 5.5 SSE 11 13 6 7 1020.8 1020.8 0.0
19/05:00pm 14.5 10.4 0.0 37 6.1 S 11 15 6 8 1020.3 1020.3 0.0
19/04:30pm 16.3 11.4 -0.8 31 7.2 S 15 19 8 10 1019.8 1019.8 0.0
19/04:00pm 17.7 12.5 -2.5 25 8.3 SSW 15 17 8 9 1019.5 1019.5 0.0
19/03:30pm 18.3 12.6 -3.8 22 8.9 SSW 17 20 9 11 1019.1 1019.1 0.0
19/03:00pm 18.9 14.6 -4.5 20 9.3 SW 9 17 5 9 1018.8 1018.8 0.0
19/02:30pm 19.0 14.4 -3.8 21 9.2 SSW 11 15 6 8 1018.7 1018.7 0.0
19/02:00pm 18.7 13.6 -5.4 19 9.4 SSW 13 24 7 13 1018.6 1018.6 0.0
19/01:30pm 18.2 13.6 -4.5 21 9.0 SW 11 17 6 9 1018.5 1018.5 0.0
19/01:00pm 18.0 11.7 -5.9 19 9.1 SSW 19 26 10 14 1018.5 1018.5 0.0
19/12:30pm 18.0 11.8 -5.3 20 9.1 SW 19 28 10 15 1018.8 1018.8 0.0
19/12:00pm 17.6 13.1 -3.2 24 8.4 SW 11 19 6 10 1019.1 1019.1 0.0
19/11:30am 17.3 12.5 -2.9 25 8.2 SSW 13 19 7 10 1019.7 1019.7 0.0
19/11:00am 16.0 11.6 0.2 34 6.7 W 13 17 7 9 1020.0 1020.0 0.0
19/10:30am 15.1 10.6 -0.6 34 6.5 WSW 13 17 7 9 1020.1 1020.1 0.0
19/10:00am 14.0 10.0 0.6 40 5.7 WNW 11 15 6 8 1020.3 1020.3 0.0
19/09:30am 11.9 8.0 1.3 48 4.5 WSW 11 15 6 8 1020.5 1020.5 0.0
19/09:00am 10.3 6.6 2.2 57 3.4 WSW 11 15 6 8 1020.6 1020.6 0.0
19/08:30am 8.7 4.6 2.3 64 2.7 WSW 13 15 7 8 1020.1 1020.1 0.0
19/08:00am 6.4 2.2 1.9 73 1.8 WSW 13 17 7 9 1020.0 1020.0 0.0
19/07:30am 4.7 1.8 1.4 79 1.3 WNW 6 11 3 6 1019.9 1019.9 0.0
19/07:00am 4.4 0.1 1.1 79 1.3 WSW 13 15 7 8 1019.6 1019.6 0.0
19/06:30am 4.8 0.9 1.3 78 1.4 W 11 13 6 7 1019.2 1019.2 0.0
19/06:00am 4.6 1.7 1.6 81 1.2 W 6 11 3 6 1019.1 1019.1 0.0
19/05:30am 1.0 -2.6 -2.1 80 1.1 NW 7 9 4 5 1018.9 1018.9 0.0
19/05:00am 1.1 -2.5 -1.8 81 1.0 NW 7 9 4 5 1018.6 1018.6 0.0
19/04:30am 1.2 -0.9 -0.6 88 0.6 CALM 0 0 0 0 1018.5 1018.5 0.0
19/04:00am 4.7 1.1 0.5 74 1.6 W 9 13 5 7 1018.4 1018.4 0.0
19/03:30am 1.5 -0.9 0.0 90 0.5 NW 2 9 1 5 1018.2 1018.2 0.0
19/03:00am 1.5 -1.0 -0.9 84 0.9 NNW 2 7 1 4 1018.2 1018.2 0.0
19/02:30am 3.0 0.5 -1.2 74 1.5 NE 2 7 1 4 1018.2 1018.2 0.0
19/02:00am 7.9 5.0 2.4 68 2.3 WNW 7 9 4 5 1018.2 1018.2 0.0
19/01:30am 6.6 4.9 1.9 72 1.9 CALM 0 0 0 0 1018.3 1018.3 0.0
19/01:00am 3.8 1.5 0.3 78 1.3 NNW 2 7 1 4 1018.2 1018.2 0.0
19/12:30am 3.4 0.3 -0.1 78 1.3 NW 6 9 3 5 1018.2 1018.2 0.0
19/12:00am 3.5 0.5 0.6 81 1.1 WNW 6 7 3 4 1018.3 1018.3 0.0
 
Date/Time
EST
Temp
°C
App
Temp
°C
Dew
Point
°C
Rel
Hum
%
Delta-T
°C
Wind Press
QNH
hPa
Press
MSL
hPa
Rain since
9am
mm
Dir  Spd
km/h
Gust
km/h
Spd
kts
Gust
kts
18/11:30pm 5.2 3.5 2.0 80 1.3 CALM 0 0 0 0 1018.4 1018.4 0.0
18/11:00pm 4.7 2.7 -0.1 71 1.8 CALM 0 0 0 0 1018.4 1018.4 0.0

Other formats

Comma delimited format used in spreadsheet applications
http://www.bom.gov.au/fwo/IDN60801/IDN60801.95784.axf

JavaScript Object Notation format (JSON) in row-major order
http://www.bom.gov.au/fwo/IDN60801/IDN60801.95784.json

Data quality

Most of these data are generated automatically and are frequently updated. Quality checks on data are not normally performed. It is possible for incorrect values to appear. Refer to information at About Latest Weather Observations and please check the disclaimer before using these data.